createdAt,value
2019-03-05T00:03:08.723Z,11.47
2019-03-05T00:09:22.846Z,11.20
2019-03-05T00:15:28.633Z,17.00
2019-03-05T00:21:35.384Z,11.27
2019-03-05T00:28:03.379Z,7.17
2019-03-05T00:35:01.158Z,8.30
2019-03-05T00:41:25.601Z,6.47
2019-03-05T00:48:11.449Z,4.77
2019-03-05T00:54:49.849Z,9.37
2019-03-05T01:01:50.916Z,8.80
2019-03-05T01:07:57.240Z,11.00
2019-03-05T01:14:03.110Z,8.73
2019-03-05T01:20:09.672Z,7.63
2019-03-05T01:26:15.689Z,8.50
2019-03-05T01:32:42.862Z,7.90
2019-03-05T01:39:04.475Z,6.60
2019-03-05T01:45:12.568Z,9.03
2019-03-05T01:51:18.351Z,8.03
2019-03-05T01:57:24.202Z,6.67
2019-03-05T02:03:29.966Z,7.73
2019-03-05T02:09:35.776Z,4.80
2019-03-05T02:15:41.700Z,3.53
2019-03-05T02:21:47.594Z,4.40
2019-03-05T02:28:38.764Z,1.90
2019-03-05T02:35:55.314Z,6.33
2019-03-05T02:42:49.991Z,1.93
2019-03-05T02:50:03.188Z,3.23
2019-03-05T02:57:10.132Z,5.07
2019-03-05T03:03:34.808Z,5.50
2019-03-05T03:10:18.855Z,3.23
2019-03-05T03:16:24.773Z,5.63
2019-03-05T03:22:30.518Z,3.53
2019-03-05T03:28:36.271Z,3.40
2019-03-05T03:34:42.390Z,3.23
2019-03-05T03:40:48.302Z,9.27
2019-03-05T03:46:54.323Z,5.53
2019-03-05T03:53:00.105Z,5.97
2019-03-05T03:59:07.934Z,5.30
2019-03-05T04:05:13.773Z,3.00
2019-03-05T04:11:19.690Z,5.03
2019-03-05T04:17:25.626Z,3.30
2019-03-05T04:23:31.844Z,3.37
2019-03-05T04:29:37.628Z,3.83
2019-03-05T04:35:43.610Z,5.40
2019-03-05T04:41:50.774Z,3.60
2019-03-05T04:47:56.684Z,4.53
2019-03-05T04:54:02.817Z,2.37
2019-03-05T05:00:14.096Z,5.07
2019-03-05T05:06:20.383Z,5.27
2019-03-05T05:12:26.645Z,3.83
2019-03-05T05:18:32.627Z,5.43
2019-03-05T05:24:38.372Z,7.03
2019-03-05T05:30:44.412Z,2.80
2019-03-05T05:36:50.388Z,5.43
2019-03-05T05:42:56.280Z,4.67
2019-03-05T05:49:02.005Z,4.93
2019-03-05T05:55:08.414Z,3.80
2019-03-05T06:01:14.164Z,3.20
2019-03-05T06:07:20.007Z,4.63
2019-03-05T06:13:25.763Z,1.73
2019-03-05T06:19:31.537Z,2.13
2019-03-05T06:25:37.540Z,3.70
2019-03-05T06:31:43.720Z,2.17
2019-03-05T06:37:49.944Z,6.17
2019-03-05T06:43:55.787Z,1.77
2019-03-05T06:50:02.100Z,1.67
2019-03-05T06:56:08.046Z,2.27
2019-03-05T07:02:13.753Z,1.37
2019-03-05T07:08:19.558Z,1.03
2019-03-05T07:14:37.142Z,1.03
2019-03-05T07:21:51.211Z,1.47
2019-03-05T07:27:59.794Z,0.80
2019-03-05T07:34:07.782Z,1.20
2019-03-05T07:40:33.934Z,1.20
2019-03-05T07:46:39.932Z,1.70
2019-03-05T07:52:45.979Z,2.10
2019-03-05T07:58:51.894Z,2.90
2019-03-05T08:04:58.778Z,1.63
2019-03-05T08:11:04.958Z,0.90
2019-03-05T08:17:10.748Z,3.53
2019-03-05T08:23:16.579Z,1.33
2019-03-05T08:29:22.721Z,1.57
2019-03-05T08:35:28.690Z,1.77
2019-03-05T08:41:34.802Z,1.80
2019-03-05T08:47:40.690Z,1.77
2019-03-05T08:53:49.797Z,1.27
2019-03-05T08:59:54.115Z,2.20
2019-03-05T09:06:00.110Z,1.87
2019-03-05T09:12:06.679Z,2.10
2019-03-05T09:18:12.473Z,2.27
2019-03-05T09:24:18.230Z,3.57
2019-03-05T09:30:23.947Z,2.77
2019-03-05T09:36:29.760Z,2.40
2019-03-05T09:42:39.945Z,3.00
2019-03-05T09:48:43.038Z,6.33
2019-03-05T09:54:49.002Z,5.90
2019-03-05T10:00:54.891Z,3.50
2019-03-05T10:07:00.720Z,3.37
2019-03-05T10:13:06.719Z,5.07
2019-03-05T10:19:12.585Z,4.87
2019-03-05T10:25:20.222Z,3.57
2019-03-05T10:31:25.963Z,7.57
2019-03-05T10:37:31.733Z,5.90
2019-03-05T10:43:37.528Z,5.33
2019-03-05T10:49:43.289Z,3.20
2019-03-05T10:55:49.293Z,4.57
2019-03-05T11:01:55.591Z,3.47
2019-03-05T11:08:01.453Z,3.27
2019-03-05T11:14:07.310Z,4.13
2019-03-05T11:20:13.546Z,3.93
2019-03-05T11:26:19.287Z,4.57
2019-03-05T11:32:25.134Z,3.73
2019-03-05T11:38:32.873Z,4.07
2019-03-05T11:44:38.613Z,4.27
2019-03-05T11:50:44.668Z,5.27
2019-03-05T11:56:50.578Z,2.93
2019-03-05T12:02:56.512Z,3.33
2019-03-05T12:09:02.392Z,2.60
2019-03-05T12:15:12.173Z,2.13
2019-03-05T12:21:17.938Z,3.87
2019-03-05T12:27:23.771Z,5.10
2019-03-05T12:33:29.994Z,7.30
2019-03-05T12:39:35.806Z,3.83
2019-03-05T12:45:41.610Z,12.03
2019-03-05T12:51:47.416Z,6.70
2019-03-05T12:57:53.446Z,2.30
2019-03-05T13:03:59.215Z,3.63
2019-03-05T13:10:05.266Z,2.00
2019-03-05T13:16:13.777Z,1.53
2019-03-05T13:22:18.838Z,2.03
2019-03-05T13:28:24.624Z,3.17
2019-03-05T13:34:30.660Z,3.90
2019-03-05T13:40:38.407Z,1.20
2019-03-05T13:46:45.151Z,2.87
2019-03-05T13:53:36.397Z,1.70
2019-03-05T13:59:49.863Z,1.40
2019-03-05T14:06:48.135Z,1.73
2019-03-05T14:12:54.136Z,1.50
2019-03-05T14:18:59.966Z,3.73
2019-03-05T14:25:07.296Z,1.30
2019-03-05T14:31:13.082Z,3.43
2019-03-05T14:37:18.977Z,1.50
2019-03-05T14:43:24.735Z,2.70
2019-03-05T14:49:30.443Z,3.37
2019-03-05T14:55:36.236Z,2.63
2019-03-05T15:01:42.057Z,2.20
2019-03-05T15:07:47.773Z,2.27
2019-03-05T15:13:53.726Z,4.47
2019-03-05T15:19:59.506Z,1.40
2019-03-05T15:26:05.390Z,2.63
2019-03-05T15:32:11.240Z,2.00
2019-03-05T15:38:17.075Z,3.10
2019-03-05T15:44:22.814Z,2.97
2019-03-05T15:50:28.695Z,2.03
2019-03-05T15:56:34.543Z,1.47
2019-03-05T16:02:40.639Z,2.57
2019-03-05T16:08:46.404Z,3.27
2019-03-05T16:14:52.130Z,2.00
2019-03-05T16:21:01.893Z,1.43
2019-03-05T16:27:05.412Z,3.00
2019-03-05T16:33:36.796Z,1.87
2019-03-05T16:40:01.133Z,3.70
2019-03-05T16:46:34.768Z,1.47
2019-03-05T16:52:59.506Z,2.20
2019-03-05T16:59:24.951Z,2.43
2019-03-05T17:05:52.424Z,5.53
2019-03-05T17:11:58.326Z,1.90
2019-03-05T17:18:04.107Z,2.80
2019-03-05T17:24:10.488Z,2.87
2019-03-05T17:30:17.250Z,2.23
2019-03-05T17:36:23.225Z,3.07
2019-03-05T17:42:29.847Z,2.47
2019-03-05T17:48:35.781Z,2.67
2019-03-05T17:54:41.563Z,3.93
2019-03-05T18:00:48.885Z,4.63
2019-03-05T18:06:54.605Z,2.97
2019-03-05T18:13:00.350Z,2.13
2019-03-05T18:19:06.273Z,2.27
2019-03-05T18:25:12.581Z,2.27
2019-03-05T18:31:18.299Z,1.80
2019-03-05T18:37:24.214Z,2.33
2019-03-05T18:43:29.999Z,6.33
2019-03-05T18:49:35.727Z,1.63
2019-03-05T18:55:41.989Z,3.90
2019-03-05T19:01:47.839Z,2.33
2019-03-05T19:07:53.723Z,3.13
2019-03-05T19:13:59.454Z,1.67
2019-03-05T19:20:06.620Z,3.10
2019-03-05T19:26:14.734Z,5.33
2019-03-05T19:32:20.512Z,2.73
2019-03-05T19:38:26.229Z,1.70
2019-03-05T19:44:32.174Z,3.17
2019-03-05T19:50:38.227Z,5.27
2019-03-05T19:56:44.291Z,1.87
2019-03-05T20:02:50.022Z,5.40
2019-03-05T20:08:56.362Z,4.17
2019-03-05T20:15:02.219Z,2.10
2019-03-05T20:21:09.931Z,9.63
2019-03-05T20:27:16.467Z,5.80
2019-03-05T20:33:22.509Z,5.43
2019-03-05T20:39:28.423Z,4.67
2019-03-05T20:45:39.774Z,5.10
2019-03-05T20:51:45.527Z,5.00
2019-03-05T20:57:51.504Z,6.00
2019-03-05T21:03:57.787Z,2.87
2019-03-05T21:10:03.979Z,5.73
2019-03-05T21:16:10.035Z,5.00
2019-03-05T21:22:16.100Z,4.13
2019-03-05T21:28:21.958Z,3.93
2019-03-05T21:34:28.116Z,7.23
2019-03-05T21:40:34.009Z,4.20
2019-03-05T21:46:40.795Z,4.53
2019-03-05T21:52:48.566Z,4.20
2019-03-05T21:58:54.535Z,5.20
2019-03-05T22:05:01.418Z,3.47
2019-03-05T22:11:07.934Z,3.60
2019-03-05T22:17:14.031Z,4.33
2019-03-05T22:23:20.054Z,3.33
2019-03-05T22:29:25.822Z,5.03
2019-03-05T22:35:31.627Z,4.03
2019-03-05T22:41:38.380Z,3.90
2019-03-05T22:47:44.350Z,5.37
2019-03-05T22:53:50.295Z,4.87
2019-03-05T22:59:56.210Z,4.17
2019-03-05T23:06:03.811Z,3.13
2019-03-05T23:12:09.907Z,4.83
2019-03-05T23:18:15.605Z,2.93
2019-03-05T23:24:21.966Z,4.03
2019-03-05T23:30:28.114Z,2.63
2019-03-05T23:36:34.230Z,2.30
2019-03-05T23:42:40.306Z,3.07
2019-03-05T23:48:59.792Z,4.50
2019-03-05T23:55:06.190Z,3.47
